Forestdale, Massachusetts
Current Conditions -  °F | °C
As of 3:35 AM on Sunday 21 Dec 2014 (Local Time) from KFMH Reporting Station
Overcast Overcast  
Wind Chill: 30°   Ceiling: 4900
Heat Index: 37°   Visibility: 10mi
Dew Point: 34°   Wind: 10mph
Humidity: 87%   Direction: 50°NE
Pressure: 30.25"   Gusts: NA
Location:  41.69°N, 70.51°W
Report Text: KFMH 210835Z AUTO 05009KT 10SM FEW021 FEW037 OVC049 03/01 A3025 RMK AO2
Loading
Personal Weather Stations






























Interactive Weather Map New forecast layout! Learn more

10-Day Weather Forecast

Advertisements
Track Severe Weather on mobile